createdAt,value
2018-09-04T00:00:19.226Z,19.53
2018-09-04T00:02:47.548Z,18.33
2018-09-04T00:05:15.814Z,20.73
2018-09-04T00:07:44.120Z,19.73
2018-09-04T00:10:12.373Z,17.27
2018-09-04T00:12:40.637Z,18.63
2018-09-04T00:15:08.868Z,19.50
2018-09-04T00:17:37.124Z,19.83
2018-09-04T00:20:05.400Z,19.40
2018-09-04T00:22:33.653Z,19.50
2018-09-04T00:25:01.927Z,21.23
2018-09-04T00:27:30.191Z,16.90
2018-09-04T00:29:58.477Z,17.77
2018-09-04T00:32:26.752Z,18.03
2018-09-04T00:34:54.980Z,19.07
2018-09-04T00:37:23.240Z,17.30
2018-09-04T00:39:51.728Z,18.13
2018-09-04T00:42:20.092Z,16.80
2018-09-04T00:44:48.369Z,17.83
2018-09-04T00:47:16.615Z,17.23
2018-09-04T00:49:44.899Z,18.57
2018-09-04T00:52:13.178Z,19.77
2018-09-04T00:54:41.433Z,18.40
2018-09-04T00:57:09.756Z,19.10
2018-09-04T00:59:38.004Z,21.77
2018-09-04T01:02:06.270Z,21.27
2018-09-04T01:04:34.551Z,17.67
2018-09-04T01:07:02.795Z,18.60
2018-09-04T01:09:31.090Z,19.97
2018-09-04T01:11:59.338Z,18.73
2018-09-04T01:14:27.615Z,21.03
2018-09-04T01:16:55.843Z,17.77
2018-09-04T01:19:24.124Z,17.63
2018-09-04T01:21:52.456Z,22.33
2018-09-04T01:24:20.688Z,22.90
2018-09-04T01:26:48.926Z,17.63
2018-09-04T01:29:17.210Z,20.33
2018-09-04T01:31:45.480Z,17.13
2018-09-04T01:34:13.761Z,18.13
2018-09-04T01:36:42.017Z,19.07
2018-09-04T01:39:10.262Z,22.40
2018-09-04T01:41:38.651Z,17.43
2018-09-04T01:44:06.906Z,19.43
2018-09-04T01:46:35.210Z,19.23
2018-09-04T01:49:03.479Z,19.17
2018-09-04T01:51:31.752Z,18.27
2018-09-04T01:53:59.979Z,22.77
2018-09-04T01:56:28.212Z,21.13
2018-09-04T01:58:56.516Z,19.37
2018-09-04T02:01:24.812Z,20.10
2018-09-04T02:04:00.553Z,18.53
2018-09-04T02:06:28.821Z,19.03
2018-09-04T02:08:57.082Z,19.73
2018-09-04T02:11:25.355Z,22.37
2018-09-04T02:13:53.603Z,21.13
2018-09-04T02:16:21.925Z,20.93
2018-09-04T02:18:50.169Z,19.40
2018-09-04T02:21:18.431Z,25.93
2018-09-04T02:23:46.691Z,22.40
2018-09-04T02:26:14.941Z,22.43
2018-09-04T02:28:43.251Z,21.47
2018-09-04T02:31:11.510Z,24.37
2018-09-04T02:33:39.766Z,19.67
2018-09-04T02:36:08.022Z,20.90
2018-09-04T02:38:36.258Z,22.10
2018-09-04T02:41:04.608Z,23.10
2018-09-04T02:43:32.867Z,25.77
2018-09-04T02:46:01.133Z,26.30
2018-09-04T02:48:35.490Z,23.40
2018-09-04T02:51:03.789Z,26.33
2018-09-04T02:53:34.122Z,29.83
2018-09-04T02:56:02.397Z,26.50
2018-09-04T02:58:30.698Z,28.17
2018-09-04T03:00:59.037Z,28.50
2018-09-04T03:03:27.330Z,29.47
2018-09-04T03:05:55.609Z,33.73
2018-09-04T03:08:23.879Z,28.00
2018-09-04T03:10:52.143Z,32.10
2018-09-04T03:13:20.395Z,29.10
2018-09-04T03:15:48.675Z,33.00
2018-09-04T03:18:17.050Z,34.63
2018-09-04T03:20:45.323Z,30.23
2018-09-04T03:23:13.624Z,33.27
2018-09-04T03:25:41.947Z,32.90
2018-09-04T03:28:10.226Z,28.63
2018-09-04T03:30:38.598Z,32.73
2018-09-04T03:33:06.879Z,32.40
2018-09-04T03:35:35.224Z,30.47
2018-09-04T03:38:03.487Z,32.20
2018-09-04T03:40:31.791Z,28.83
2018-09-04T03:43:00.282Z,30.87
2018-09-04T03:45:28.568Z,33.00
2018-09-04T03:47:56.806Z,32.60
2018-09-04T03:50:25.054Z,36.33
2018-09-04T03:52:53.270Z,32.90
2018-09-04T03:55:21.575Z,32.83
2018-09-04T03:57:49.823Z,29.60
2018-09-04T04:00:18.070Z,32.13
2018-09-04T04:02:46.310Z,33.17
2018-09-04T04:05:14.558Z,33.63
2018-09-04T04:07:42.860Z,32.03
2018-09-04T04:10:11.108Z,33.33
2018-09-04T04:12:39.538Z,28.17
2018-09-04T04:15:07.805Z,34.87
2018-09-04T04:17:36.084Z,34.90
2018-09-04T04:20:04.427Z,30.20
2018-09-04T04:22:32.663Z,34.70
2018-09-04T04:25:00.921Z,30.83
2018-09-04T04:27:29.194Z,30.33
2018-09-04T04:29:57.490Z,36.03
2018-09-04T04:32:26.451Z,32.50
2018-09-04T04:34:54.829Z,34.73
2018-09-04T04:37:23.051Z,33.10
2018-09-04T04:39:51.309Z,27.93
2018-09-04T04:42:19.560Z,33.27
2018-09-04T04:44:47.891Z,29.20
2018-09-04T04:47:18.056Z,27.33
2018-09-04T04:49:46.312Z,32.80
2018-09-04T04:52:14.564Z,30.53
2018-09-04T04:54:42.794Z,33.90
2018-09-04T04:57:11.091Z,29.10
2018-09-04T04:59:39.332Z,31.30
2018-09-04T05:02:07.569Z,29.00
2018-09-04T05:04:35.828Z,29.83
2018-09-04T05:07:04.117Z,29.07
2018-09-04T05:09:32.446Z,29.80
2018-09-04T05:12:00.684Z,29.23
2018-09-04T05:14:28.922Z,27.17
2018-09-04T05:16:57.220Z,29.67
2018-09-04T05:19:25.513Z,24.97
2018-09-04T05:21:53.829Z,24.97
2018-09-04T05:24:22.096Z,27.67
2018-09-04T05:26:50.352Z,25.40
2018-09-04T05:29:18.659Z,26.33
2018-09-04T05:31:51.454Z,24.40
2018-09-04T05:34:20.631Z,25.07
2018-09-04T05:36:48.944Z,24.80
2018-09-04T05:39:17.185Z,24.10
2018-09-04T05:41:45.457Z,24.40
2018-09-04T05:44:13.772Z,23.83
2018-09-04T05:46:45.871Z,22.23
2018-09-04T05:49:16.426Z,24.47
2018-09-04T05:51:44.756Z,28.90
2018-09-04T05:54:13.087Z,22.80
2018-09-04T05:56:41.323Z,23.53
2018-09-04T05:59:09.594Z,23.83
2018-09-04T06:01:37.887Z,20.67
2018-09-04T06:04:06.151Z,23.40
2018-09-04T06:06:34.530Z,24.57
2018-09-04T06:09:02.789Z,23.20
2018-09-04T06:11:31.019Z,23.00
2018-09-04T06:13:59.284Z,23.90
2018-09-04T06:16:27.516Z,22.67
2018-09-04T06:18:55.829Z,28.17
2018-09-04T06:21:24.092Z,21.37
2018-09-04T06:23:52.339Z,22.27
2018-09-04T06:26:20.598Z,18.43
2018-09-04T06:28:48.887Z,20.77
2018-09-04T06:31:17.198Z,21.13
2018-09-04T06:33:45.504Z,20.33
2018-09-04T06:36:13.931Z,22.70
2018-09-04T06:38:42.392Z,28.53
2018-09-04T06:41:10.633Z,21.73
2018-09-04T06:43:38.943Z,23.57
2018-09-04T06:46:07.153Z,18.47
2018-09-04T06:48:35.819Z,18.13
2018-09-04T06:51:04.919Z,17.97
2018-09-04T06:53:33.357Z,17.07
2018-09-04T06:56:01.634Z,19.20
2018-09-04T06:58:29.880Z,20.27
2018-09-04T07:00:58.088Z,16.33
2018-09-04T07:03:26.323Z,20.13
2018-09-04T07:05:54.538Z,18.60
2018-09-04T07:08:22.825Z,15.87
2018-09-04T07:10:51.024Z,15.27
2018-09-04T07:13:19.593Z,17.87
2018-09-04T07:15:47.834Z,15.00
2018-09-04T07:18:16.024Z,17.57
2018-09-04T07:20:44.334Z,18.30
2018-09-04T07:23:13.263Z,15.87
2018-09-04T07:25:41.460Z,14.90
2018-09-04T07:28:09.651Z,14.97
2018-09-04T07:30:37.876Z,15.53
2018-09-04T07:33:06.167Z,15.80
2018-09-04T07:35:34.500Z,15.27
2018-09-04T07:38:02.752Z,17.30
2018-09-04T07:40:31.020Z,14.00
2018-09-04T07:42:59.278Z,14.33
2018-09-04T07:45:27.563Z,13.50
2018-09-04T07:47:55.812Z,13.10
2018-09-04T07:50:24.072Z,13.57
2018-09-04T07:52:52.363Z,13.83
2018-09-04T07:55:20.607Z,13.37
2018-09-04T07:57:48.907Z,11.40
2018-09-04T08:00:17.206Z,11.97
2018-09-04T08:02:45.470Z,15.23
2018-09-04T08:05:13.729Z,13.97
2018-09-04T08:07:42.076Z,14.47
2018-09-04T08:10:10.398Z,14.90
2018-09-04T08:12:38.650Z,10.87
2018-09-04T08:15:06.978Z,12.90
2018-09-04T08:17:35.275Z,12.43
2018-09-04T08:20:03.593Z,11.87
2018-09-04T08:22:31.823Z,11.70
2018-09-04T08:25:00.157Z,13.07
2018-09-04T08:27:28.392Z,12.00
2018-09-04T08:29:56.663Z,11.67
2018-09-04T08:32:24.955Z,12.80
2018-09-04T08:34:53.187Z,10.67
2018-09-04T08:37:21.452Z,12.37
2018-09-04T08:39:49.745Z,11.87
2018-09-04T08:42:18.089Z,11.07
2018-09-04T08:44:46.435Z,15.60
2018-09-04T08:47:14.947Z,13.07
2018-09-04T08:49:43.248Z,12.83
2018-09-04T08:52:11.487Z,11.00
2018-09-04T08:54:39.778Z,12.70
2018-09-04T08:57:08.128Z,13.20
2018-09-04T08:59:36.472Z,12.90
2018-09-04T09:02:04.863Z,11.83
2018-09-04T09:04:33.922Z,11.53
2018-09-04T09:07:02.161Z,12.47
2018-09-04T09:09:30.436Z,10.50
2018-09-04T09:11:58.685Z,11.20
2018-09-04T09:14:26.950Z,12.07
2018-09-04T09:16:55.229Z,11.43
2018-09-04T09:19:23.466Z,11.30
2018-09-04T09:21:51.760Z,10.43
2018-09-04T09:24:20.031Z,11.57
2018-09-04T09:26:48.306Z,11.43
2018-09-04T09:29:16.781Z,12.07
2018-09-04T09:31:45.021Z,11.83
2018-09-04T09:34:13.292Z,11.23
2018-09-04T09:36:41.687Z,11.30
2018-09-04T09:39:10.483Z,10.87
2018-09-04T09:41:40.847Z,9.03
2018-09-04T09:44:09.155Z,9.20
2018-09-04T09:46:37.424Z,9.33
2018-09-04T09:49:05.807Z,9.07
2018-09-04T09:51:34.053Z,8.83
2018-09-04T09:54:02.467Z,10.73
2018-09-04T09:56:30.681Z,7.63
2018-09-04T09:58:59.008Z,6.63
2018-09-04T10:01:35.568Z,6.53
2018-09-04T10:04:05.727Z,8.93
2018-09-04T10:06:33.956Z,8.30
2018-09-04T10:09:02.248Z,7.43
2018-09-04T10:11:30.551Z,10.07
2018-09-04T10:13:58.836Z,6.93
2018-09-04T10:16:27.121Z,9.47
2018-09-04T10:18:55.383Z,7.77
2018-09-04T10:21:24.533Z,6.97
2018-09-04T10:23:52.777Z,6.67
2018-09-04T10:26:21.067Z,6.93
2018-09-04T10:28:49.367Z,6.70
2018-09-04T10:31:17.695Z,10.10
2018-09-04T10:33:45.998Z,7.10
2018-09-04T10:36:14.252Z,7.73
2018-09-04T10:38:42.513Z,7.10
2018-09-04T10:41:12.781Z,7.17
2018-09-04T10:43:41.436Z,6.90
2018-09-04T10:46:11.137Z,7.87
2018-09-04T10:48:39.618Z,5.97
2018-09-04T10:53:42.524Z,6.93
2018-09-04T10:56:10.846Z,7.03
2018-09-04T10:58:39.138Z,12.40
2018-09-04T11:01:07.428Z,7.53
2018-09-04T11:03:35.659Z,7.90
2018-09-04T11:06:03.971Z,7.40
2018-09-04T11:08:32.299Z,6.78
2018-09-04T11:11:00.624Z,7.80
2018-09-04T11:13:29.295Z,6.83
2018-09-04T11:15:57.631Z,12.43
2018-09-04T11:18:25.947Z,6.22
2018-09-04T11:20:54.307Z,7.53
2018-09-04T11:23:22.599Z,7.00
2018-09-04T11:25:50.880Z,6.93
2018-09-04T11:28:19.190Z,8.63
2018-09-04T11:30:47.552Z,6.97
2018-09-04T11:33:15.896Z,7.03
2018-09-04T11:35:44.206Z,6.87
2018-09-04T11:38:12.531Z,7.00
2018-09-04T11:40:40.910Z,11.80
2018-09-04T11:43:09.498Z,7.23
2018-09-04T11:45:37.872Z,6.73
2018-09-04T11:48:06.276Z,8.08
2018-09-04T11:50:36.637Z,7.10
2018-09-04T11:53:04.918Z,5.80
2018-09-04T11:55:33.172Z,6.42
2018-09-04T11:58:01.488Z,6.58
2018-09-04T12:00:34.579Z,6.47
2018-09-04T12:03:03.074Z,6.72
2018-09-04T12:05:31.399Z,6.65
2018-09-04T12:07:59.694Z,7.17
2018-09-04T12:10:27.999Z,7.75
2018-09-04T12:12:56.316Z,6.75
2018-09-04T12:15:24.678Z,8.25
2018-09-04T12:17:53.821Z,7.65
2018-09-04T12:20:27.104Z,7.20
2018-09-04T12:22:55.434Z,7.03
2018-09-04T12:25:24.799Z,11.20
2018-09-04T12:27:53.114Z,7.27
2018-09-04T12:30:21.418Z,7.20
2018-09-04T12:32:49.704Z,9.47
2018-09-04T12:35:18.001Z,7.80
2018-09-04T12:37:46.636Z,7.20
2018-09-04T12:40:14.939Z,6.60
2018-09-04T12:42:43.227Z,6.67
2018-09-04T12:45:11.558Z,6.78
2018-09-04T12:47:39.940Z,6.92
2018-09-04T12:50:08.277Z,5.60
2018-09-04T12:52:36.540Z,7.60
2018-09-04T12:55:04.915Z,6.35
2018-09-04T12:57:33.212Z,5.97
2018-09-04T13:00:01.530Z,6.85
2018-09-04T13:02:29.901Z,5.95
2018-09-04T13:04:58.223Z,6.00
2018-09-04T13:07:26.507Z,8.70
2018-09-04T13:09:54.818Z,6.25
2018-09-04T13:12:23.094Z,5.78
2018-09-04T13:14:51.472Z,6.08
2018-09-04T13:17:19.820Z,7.80
2018-09-04T13:19:48.176Z,6.87
2018-09-04T13:22:16.496Z,4.85
2018-09-04T13:24:44.772Z,5.50
2018-09-04T13:27:13.181Z,5.50
2018-09-04T13:29:41.530Z,7.35
2018-09-04T13:32:10.890Z,7.33
2018-09-04T13:34:39.247Z,6.55
2018-09-04T13:37:08.062Z,5.10
2018-09-04T13:39:36.349Z,5.55
2018-09-04T13:42:07.224Z,4.97
2018-09-04T13:44:35.587Z,5.00
2018-09-04T13:47:05.914Z,7.22
2018-09-04T13:49:34.424Z,4.70
2018-09-04T13:52:02.681Z,5.75
2018-09-04T13:54:31.109Z,4.08
2018-09-04T13:56:59.549Z,4.55
2018-09-04T13:59:27.792Z,4.62
2018-09-04T14:01:58.198Z,5.05
2018-09-04T14:04:26.511Z,4.62
2018-09-04T14:06:54.729Z,5.85
2018-09-04T14:09:23.067Z,5.28
2018-09-04T14:11:51.589Z,4.78
2018-09-04T14:14:19.840Z,4.80
2018-09-04T14:16:48.059Z,5.92
2018-09-04T14:19:16.384Z,6.28
2018-09-04T14:21:44.671Z,4.97
2018-09-04T14:24:12.925Z,9.88
2018-09-04T14:26:41.188Z,5.00
2018-09-04T14:29:09.432Z,5.10
2018-09-04T14:31:37.693Z,6.58
2018-09-04T14:34:06.020Z,5.17
2018-09-04T14:36:34.462Z,4.33
2018-09-04T14:39:02.768Z,4.17
2018-09-04T14:41:31.136Z,7.22
2018-09-04T14:43:59.430Z,5.03
2018-09-04T14:46:27.810Z,4.47
2018-09-04T14:48:56.277Z,4.87
2018-09-04T14:51:24.635Z,5.58
2018-09-04T14:53:53.173Z,5.10
2018-09-04T14:56:21.460Z,6.58
2018-09-04T14:58:49.780Z,6.65
2018-09-04T15:01:18.100Z,5.50
2018-09-04T15:03:46.377Z,5.60
2018-09-04T15:06:14.704Z,4.80
2018-09-04T15:08:43.029Z,4.25
2018-09-04T15:11:11.365Z,5.10
2018-09-04T15:13:40.492Z,4.45
2018-09-04T15:16:08.822Z,5.73
2018-09-04T15:21:50.034Z,6.67
2018-09-04T15:24:18.343Z,6.50
2018-09-04T15:26:46.645Z,4.33
2018-09-04T15:29:14.955Z,6.70
2018-09-04T15:31:43.362Z,6.30
2018-09-04T15:34:11.654Z,4.97
2018-09-04T15:36:40.561Z,5.47
2018-09-04T15:39:08.873Z,6.57
2018-09-04T15:41:37.367Z,4.40
2018-09-04T15:44:05.747Z,4.30
2018-09-04T15:46:34.036Z,4.47
2018-09-04T15:49:07.669Z,6.13
2018-09-04T15:51:36.048Z,4.60
2018-09-04T15:54:04.514Z,6.67
2018-09-04T15:56:32.862Z,6.23
2018-09-04T15:59:01.171Z,6.13
2018-09-04T16:01:29.546Z,4.90
2018-09-04T16:03:57.848Z,4.40
2018-09-04T16:06:26.279Z,4.50
2018-09-04T16:08:54.704Z,6.30
2018-09-04T16:11:23.018Z,6.40
2018-09-04T16:13:51.396Z,5.23
2018-09-04T16:16:19.706Z,6.20
2018-09-04T16:18:48.154Z,9.30
2018-09-04T16:21:16.495Z,5.20
2018-09-04T16:23:44.808Z,4.67
2018-09-04T16:26:13.136Z,6.53
2018-09-04T16:28:41.443Z,4.80
2018-09-04T16:31:09.792Z,6.93
2018-09-04T16:33:38.100Z,5.90
2018-09-04T16:36:06.677Z,7.70
2018-09-04T16:38:35.012Z,4.97
2018-09-04T16:41:03.281Z,4.43
2018-09-04T16:43:31.532Z,5.30
2018-09-04T16:45:59.860Z,5.73
2018-09-04T16:48:30.493Z,7.10
2018-09-04T16:50:59.204Z,6.97
2018-09-04T16:53:28.155Z,8.67
2018-09-04T16:55:56.541Z,5.03
2018-09-04T16:58:24.815Z,5.80
2018-09-04T17:00:53.071Z,6.10
2018-09-04T17:03:21.539Z,5.20
2018-09-04T17:05:49.808Z,7.13
2018-09-04T17:08:18.114Z,6.47
2018-09-04T17:10:46.525Z,9.13
2018-09-04T17:13:14.769Z,6.70
2018-09-04T17:15:43.436Z,12.50
2018-09-04T17:18:12.324Z,8.60
2018-09-04T17:20:40.597Z,8.00
2018-09-04T17:23:08.956Z,8.20
2018-09-04T17:25:37.211Z,7.60
2018-09-04T17:28:05.694Z,8.10
2018-09-04T17:30:33.987Z,9.23
2018-09-04T17:33:02.294Z,9.57
2018-09-04T17:35:30.675Z,8.53
2018-09-04T17:37:58.944Z,7.77
2018-09-04T17:40:27.281Z,6.33
2018-09-04T17:42:55.612Z,6.80
2018-09-04T17:45:23.984Z,8.50
2018-09-04T17:47:52.324Z,11.67
2018-09-04T17:50:20.566Z,9.27
2018-09-04T17:52:48.884Z,8.73
2018-09-04T17:55:17.173Z,8.13
2018-09-04T17:57:45.445Z,7.90
2018-09-04T18:00:13.753Z,8.70
2018-09-04T18:02:42.021Z,9.13
2018-09-04T18:05:10.324Z,9.27
2018-09-04T18:07:38.572Z,8.93
2018-09-04T18:10:06.914Z,8.03
2018-09-04T18:12:35.854Z,8.53
2018-09-04T18:15:04.165Z,10.07
2018-09-04T18:17:32.505Z,8.90
2018-09-04T18:20:00.980Z,8.00
2018-09-04T18:22:29.234Z,7.47
2018-09-04T18:24:57.532Z,7.17
2018-09-04T18:27:25.826Z,10.23
2018-09-04T18:29:54.176Z,10.83
2018-09-04T18:32:22.518Z,9.60
2018-09-04T18:34:50.870Z,9.43
2018-09-04T18:37:19.513Z,10.53
2018-09-04T18:39:49.092Z,7.93
2018-09-04T18:42:17.462Z,9.23
2018-09-04T18:44:45.899Z,9.17
2018-09-04T18:47:14.195Z,8.80
2018-09-04T18:49:42.531Z,9.53
2018-09-04T18:52:11.175Z,8.27
2018-09-04T18:54:39.521Z,7.53
2018-09-04T18:57:07.992Z,7.60
2018-09-04T18:59:36.336Z,10.13
2018-09-04T19:02:04.654Z,10.23
2018-09-04T19:04:32.929Z,9.40
2018-09-04T19:07:01.567Z,8.30
2018-09-04T19:09:29.838Z,11.33
2018-09-04T19:11:58.109Z,14.77
2018-09-04T19:14:26.780Z,11.00
2018-09-04T19:16:55.772Z,10.87
2018-09-04T19:19:24.106Z,10.33
2018-09-04T19:21:52.362Z,13.43
2018-09-04T19:24:20.688Z,11.47
2018-09-04T19:26:48.921Z,14.73
2018-09-04T19:29:17.197Z,11.23
2018-09-04T19:31:45.582Z,11.07
2018-09-04T19:34:14.500Z,13.03
2018-09-04T19:36:42.750Z,8.50
2018-09-04T19:39:11.449Z,8.73
2018-09-04T19:41:39.766Z,9.73
2018-09-04T19:44:08.044Z,11.67
2018-09-04T19:46:36.317Z,10.70
2018-09-04T19:49:04.940Z,10.13
2018-09-04T19:51:33.171Z,10.50
2018-09-04T19:54:01.418Z,12.10
2018-09-04T19:56:29.769Z,10.40
2018-09-04T19:58:58.094Z,9.53
2018-09-04T20:01:26.358Z,11.37
2018-09-04T20:03:54.649Z,8.93
2018-09-04T20:06:22.943Z,10.30
2018-09-04T20:08:51.255Z,13.57
2018-09-04T20:11:19.584Z,16.90
2018-09-04T20:13:47.860Z,10.13
2018-09-04T20:16:16.143Z,9.53
2018-09-04T20:18:44.987Z,9.90
2018-09-04T20:21:13.330Z,10.33
2018-09-04T20:23:41.668Z,11.27
2018-09-04T20:26:16.533Z,10.43
2018-09-04T20:28:44.895Z,10.53
2018-09-04T20:31:17.204Z,14.60
2018-09-04T20:33:48.330Z,9.77
2018-09-04T20:36:16.612Z,13.63
2018-09-04T20:38:44.896Z,14.30
2018-09-04T20:41:13.193Z,12.97
2018-09-04T20:43:41.511Z,8.53
2018-09-04T20:46:09.784Z,11.13
2018-09-04T20:48:38.059Z,12.60
2018-09-04T20:51:06.386Z,11.70
2018-09-04T20:53:34.695Z,8.97
2018-09-04T20:56:03.176Z,13.03
2018-09-04T20:58:37.192Z,11.83
2018-09-04T21:01:11.874Z,10.50
2018-09-04T21:03:45.763Z,11.03
2018-09-04T21:06:19.500Z,13.10
2018-09-04T21:09:00.722Z,9.43
2018-09-04T21:11:32.843Z,11.60
2018-09-04T21:14:05.989Z,12.63
2018-09-04T21:16:34.322Z,15.33
2018-09-04T21:19:03.438Z,13.53
2018-09-04T21:21:31.745Z,13.60
2018-09-04T21:24:00.016Z,11.67
2018-09-04T21:26:28.268Z,12.73
2018-09-04T21:28:56.623Z,13.03
2018-09-04T21:31:24.891Z,13.13
2018-09-04T21:33:53.172Z,13.87
2018-09-04T21:36:21.462Z,12.83
2018-09-04T21:38:49.804Z,14.00
2018-09-04T21:41:18.121Z,14.50
2018-09-04T21:43:46.388Z,12.53
2018-09-04T21:46:14.678Z,15.80
2018-09-04T21:48:42.935Z,12.73
2018-09-04T21:51:11.210Z,13.43
2018-09-04T21:53:39.523Z,17.73
2018-09-04T21:56:07.819Z,14.37
2018-09-04T21:58:36.233Z,14.73
2018-09-04T22:01:04.869Z,14.23
2018-09-04T22:03:33.150Z,14.23
2018-09-04T22:06:02.413Z,15.10
2018-09-04T22:08:30.699Z,14.33
2018-09-04T22:10:58.964Z,13.93
2018-09-04T22:13:27.247Z,14.10
2018-09-04T22:15:55.503Z,13.83
2018-09-04T22:18:23.816Z,16.80
2018-09-04T22:20:52.185Z,18.90
2018-09-04T22:23:20.445Z,15.63
2018-09-04T22:25:48.695Z,14.83
2018-09-04T22:28:16.963Z,21.87
2018-09-04T22:30:45.273Z,14.27
2018-09-04T22:33:13.518Z,17.17
2018-09-04T22:35:41.807Z,15.07
2018-09-04T22:38:10.056Z,16.67
2018-09-04T22:40:38.310Z,14.47
2018-09-04T22:43:06.612Z,17.83
2018-09-04T22:45:34.875Z,18.17
2018-09-04T22:48:03.171Z,15.57
2018-09-04T22:50:36.843Z,17.00
2018-09-04T22:53:05.150Z,17.37
2018-09-04T22:55:33.472Z,19.80
2018-09-04T22:58:01.766Z,20.43
2018-09-04T23:00:30.084Z,17.27
2018-09-04T23:02:58.352Z,21.30
2018-09-04T23:05:26.606Z,17.87
2018-09-04T23:07:54.875Z,17.00
2018-09-04T23:10:23.179Z,16.70
2018-09-04T23:12:51.476Z,19.20
2018-09-04T23:15:19.762Z,15.83
2018-09-04T23:17:48.026Z,16.43
2018-09-04T23:20:16.310Z,19.40
2018-09-04T23:22:44.568Z,18.53
2018-09-04T23:25:12.877Z,18.73
2018-09-04T23:27:41.136Z,17.27
2018-09-04T23:30:09.391Z,19.53
2018-09-04T23:32:38.692Z,16.47
2018-09-04T23:35:07.000Z,20.50
2018-09-04T23:37:35.296Z,22.23
2018-09-04T23:40:03.698Z,16.33
2018-09-04T23:42:33.178Z,21.13
2018-09-04T23:45:02.844Z,18.20
2018-09-04T23:47:31.114Z,22.33
2018-09-04T23:49:59.380Z,21.17
2018-09-04T23:52:27.667Z,19.73
2018-09-04T23:54:55.900Z,19.53
2018-09-04T23:57:24.143Z,20.53
2018-09-04T23:59:52.496Z,17.83
